sensor_id;sensor_type;location;lat;lon;timestamp;temperature;humidity
25208;DHT22;13153;52.316;21.166;2022-12-18T00:01:30;-3.80;99.90
25208;DHT22;13153;52.316;21.166;2022-12-18T00:03:58;-3.90;99.90
25208;DHT22;13153;52.316;21.166;2022-12-18T00:06:27;-3.90;99.90
25208;DHT22;13153;52.316;21.166;2022-12-18T00:08:56;-3.80;99.90
25208;DHT22;13153;52.316;21.166;2022-12-18T00:11:25;-3.90;99.90
25208;DHT22;13153;52.316;21.166;2022-12-18T00:13:54;-3.90;99.90
25208;DHT22;13153;52.316;21.166;2022-12-18T00:16:23;-3.80;99.90
25208;DHT22;13153;52.316;21.166;2022-12-18T00:18:55;-3.80;99.90
25208;DHT22;13153;52.316;21.166;2022-12-18T00:21:22;-3.80;99.90
25208;DHT22;13153;52.316;21.166;2022-12-18T00:23:49;-3.80;99.90
25208;DHT22;13153;52.316;21.166;2022-12-18T00:26:26;-3.80;99.90
25208;DHT22;13153;52.316;21.166;2022-12-18T00:28:57;-3.80;99.90
25208;DHT22;13153;52.316;21.166;2022-12-18T00:31:28;-3.80;99.90
25208;DHT22;13153;52.316;21.166;2022-12-18T00:33:55;-3.80;99.90
25208;DHT22;13153;52.316;21.166;2022-12-18T00:36:24;-3.80;99.90
25208;DHT22;13153;52.316;21.166;2022-12-18T00:38:53;-3.80;99.90
25208;DHT22;13153;52.316;21.166;2022-12-18T00:41:21;-3.80;99.90
25208;DHT22;13153;52.316;21.166;2022-12-18T00:44:07;-3.80;99.90
25208;DHT22;13153;52.316;21.166;2022-12-18T00:46:35;-3.80;99.90
25208;DHT22;13153;52.316;21.166;2022-12-18T00:49:01;-3.80;99.90
25208;DHT22;13153;52.316;21.166;2022-12-18T00:51:27;-3.80;99.90
25208;DHT22;13153;52.316;21.166;2022-12-18T00:53:53;-3.80;99.90
25208;DHT22;13153;52.316;21.166;2022-12-18T00:56:19;-3.80;99.90
25208;DHT22;13153;52.316;21.166;2022-12-18T00:58:45;-3.70;99.90
25208;DHT22;13153;52.316;21.166;2022-12-18T01:01:10;-3.70;99.90
25208;DHT22;13153;52.316;21.166;2022-12-18T01:03:36;-3.70;99.90
25208;DHT22;13153;52.316;21.166;2022-12-18T01:06:06;-3.70;99.90
25208;DHT22;13153;52.316;21.166;2022-12-18T01:08:33;-3.70;99.90
25208;DHT22;13153;52.316;21.166;2022-12-18T01:11:06;-3.70;99.90
25208;DHT22;13153;52.316;21.166;2022-12-18T01:13:33;-3.70;99.90
25208;DHT22;13153;52.316;21.166;2022-12-18T01:15:59;-3.60;99.90
25208;DHT22;13153;52.316;21.166;2022-12-18T01:18:25;-3.70;99.90
25208;DHT22;13153;52.316;21.166;2022-12-18T01:20:51;-3.70;99.90
25208;DHT22;13153;52.316;21.166;2022-12-18T01:23:17;-3.70;99.90
25208;DHT22;13153;52.316;21.166;2022-12-18T01:25:42;-3.60;99.90
25208;DHT22;13153;52.316;21.166;2022-12-18T01:28:08;-3.70;99.90
25208;DHT22;13153;52.316;21.166;2022-12-18T01:30:34;-3.60;99.90
25208;DHT22;13153;52.316;21.166;2022-12-18T01:32:59;-3.70;99.90
25208;DHT22;13153;52.316;21.166;2022-12-18T01:35:25;-3.60;99.90
25208;DHT22;13153;52.316;21.166;2022-12-18T01:37:54;-3.60;99.90
25208;DHT22;13153;52.316;21.166;2022-12-18T01:40:20;-3.60;99.90
25208;DHT22;13153;52.316;21.166;2022-12-18T01:42:54;-3.60;99.90
25208;DHT22;13153;52.316;21.166;2022-12-18T01:45:26;-3.60;99.90
25208;DHT22;13153;52.316;21.166;2022-12-18T01:48:00;-3.60;99.90
25208;DHT22;13153;52.316;21.166;2022-12-18T01:50:30;-3.60;99.90
25208;DHT22;13153;52.316;21.166;2022-12-18T01:53:12;-3.60;99.90
25208;DHT22;13153;52.316;21.166;2022-12-18T01:55:48;-3.60;99.90
25208;DHT22;13153;52.316;21.166;2022-12-18T01:58:17;-3.60;99.90
25208;DHT22;13153;52.316;21.166;2022-12-18T02:00:44;-3.60;99.90
25208;DHT22;13153;52.316;21.166;2022-12-18T02:03:11;-3.60;99.90
25208;DHT22;13153;52.316;21.166;2022-12-18T02:05:47;-3.60;99.90
25208;DHT22;13153;52.316;21.166;2022-12-18T02:09:22;-3.60;99.90
25208;DHT22;13153;52.316;21.166;2022-12-18T02:17:11;-3.50;99.90
25208;DHT22;13153;52.316;21.166;2022-12-18T02:20:16;-3.50;99.90
25208;DHT22;13153;52.316;21.166;2022-12-18T02:26:12;-3.50;99.90
25208;DHT22;13153;52.316;21.166;2022-12-18T02:28:53;-3.50;99.90
25208;DHT22;13153;52.316;21.166;2022-12-18T02:31:27;-3.50;99.90
25208;DHT22;13153;52.316;21.166;2022-12-18T02:33:56;-3.50;99.90
25208;DHT22;13153;52.316;21.166;2022-12-18T02:36:27;-3.50;99.90
25208;DHT22;13153;52.316;21.166;2022-12-18T02:38:56;-3.60;99.90
25208;DHT22;13153;52.316;21.166;2022-12-18T02:41:25;-3.50;99.90
25208;DHT22;13153;52.316;21.166;2022-12-18T02:44:00;-3.50;99.90
25208;DHT22;13153;52.316;21.166;2022-12-18T02:46:38;-3.50;99.90
25208;DHT22;13153;52.316;21.166;2022-12-18T02:52:34;-3.60;99.90
25208;DHT22;13153;52.316;21.166;2022-12-18T03:07:03;-3.60;99.90
25208;DHT22;13153;52.316;21.166;2022-12-18T03:09:35;-3.60;99.90
25208;DHT22;13153;52.316;21.166;2022-12-18T03:12:15;-3.60;99.90
25208;DHT22;13153;52.316;21.166;2022-12-18T03:17:34;-3.60;99.90
25208;DHT22;13153;52.316;21.166;2022-12-18T03:20:14;-3.70;99.90
25208;DHT22;13153;52.316;21.166;2022-12-18T03:22:44;-3.70;99.90
25208;DHT22;13153;52.316;21.166;2022-12-18T03:25:16;-3.70;99.90
25208;DHT22;13153;52.316;21.166;2022-12-18T03:27:47;-3.70;99.90
25208;DHT22;13153;52.316;21.166;2022-12-18T03:30:17;-3.70;99.90
25208;DHT22;13153;52.316;21.166;2022-12-18T03:35:34;-3.70;99.90
25208;DHT22;13153;52.316;21.166;2022-12-18T03:38:04;-3.80;99.90
25208;DHT22;13153;52.316;21.166;2022-12-18T03:49:47;-3.80;99.90
25208;DHT22;13153;52.316;21.166;2022-12-18T03:53:03;-3.90;99.90
25208;DHT22;13153;52.316;21.166;2022-12-18T03:55:32;-3.80;99.90
25208;DHT22;13153;52.316;21.166;2022-12-18T03:58:01;-3.90;99.90
25208;DHT22;13153;52.316;21.166;2022-12-18T04:00:31;-3.80;99.90
25208;DHT22;13153;52.316;21.166;2022-12-18T04:02:58;-3.80;99.90
25208;DHT22;13153;52.316;21.166;2022-12-18T04:05:28;-3.90;99.90
25208;DHT22;13153;52.316;21.166;2022-12-18T04:07:57;-3.90;99.90
25208;DHT22;13153;52.316;21.166;2022-12-18T04:10:24;-3.90;99.90
25208;DHT22;13153;52.316;21.166;2022-12-18T04:12:49;-3.90;99.90
25208;DHT22;13153;52.316;21.166;2022-12-18T04:15:15;-3.90;99.90
25208;DHT22;13153;52.316;21.166;2022-12-18T04:17:48;-3.90;99.90
25208;DHT22;13153;52.316;21.166;2022-12-18T04:20:15;-3.90;99.90
25208;DHT22;13153;52.316;21.166;2022-12-18T04:22:41;-3.90;99.90
25208;DHT22;13153;52.316;21.166;2022-12-18T04:25:08;-3.90;99.90
25208;DHT22;13153;52.316;21.166;2022-12-18T04:27:34;-3.90;99.90
25208;DHT22;13153;52.316;21.166;2022-12-18T04:30:00;-3.90;99.90
25208;DHT22;13153;52.316;21.166;2022-12-18T04:32:26;-3.90;99.90
25208;DHT22;13153;52.316;21.166;2022-12-18T04:34:52;-3.90;99.90
25208;DHT22;13153;52.316;21.166;2022-12-18T04:37:18;-4.00;99.90
25208;DHT22;13153;52.316;21.166;2022-12-18T04:39:43;-4.00;99.90
25208;DHT22;13153;52.316;21.166;2022-12-18T04:42:09;-4.00;99.90
25208;DHT22;13153;52.316;21.166;2022-12-18T04:44:36;-4.00;99.90
25208;DHT22;13153;52.316;21.166;2022-12-18T04:47:02;-4.00;99.90
25208;DHT22;13153;52.316;21.166;2022-12-18T04:49:27;-4.10;99.90
25208;DHT22;13153;52.316;21.166;2022-12-18T04:51:53;-4.10;99.90
25208;DHT22;13153;52.316;21.166;2022-12-18T04:54:19;-4.10;99.90
25208;DHT22;13153;52.316;21.166;2022-12-18T04:56:45;-4.10;99.90
25208;DHT22;13153;52.316;21.166;2022-12-18T04:59:11;-4.10;99.90
25208;DHT22;13153;52.316;21.166;2022-12-18T05:01:36;-4.10;99.90
25208;DHT22;13153;52.316;21.166;2022-12-18T05:04:02;-4.10;99.90
25208;DHT22;13153;52.316;21.166;2022-12-18T05:06:28;-4.10;99.90
25208;DHT22;13153;52.316;21.166;2022-12-18T05:08:54;-4.10;99.90
25208;DHT22;13153;52.316;21.166;2022-12-18T05:11:20;-4.10;99.90
25208;DHT22;13153;52.316;21.166;2022-12-18T05:13:46;-4.10;99.90
25208;DHT22;13153;52.316;21.166;2022-12-18T05:16:13;-4.10;99.90
25208;DHT22;13153;52.316;21.166;2022-12-18T05:18:40;-4.10;99.90
25208;DHT22;13153;52.316;21.166;2022-12-18T05:21:06;-4.10;99.90
25208;DHT22;13153;52.316;21.166;2022-12-18T05:23:32;-4.10;99.90
25208;DHT22;13153;52.316;21.166;2022-12-18T05:26:02;-4.10;99.90
25208;DHT22;13153;52.316;21.166;2022-12-18T05:28:30;-4.20;99.90
25208;DHT22;13153;52.316;21.166;2022-12-18T05:31:00;-4.10;99.90
25208;DHT22;13153;52.316;21.166;2022-12-18T05:33:30;-4.20;99.90
25208;DHT22;13153;52.316;21.166;2022-12-18T05:36:00;-4.20;99.90
25208;DHT22;13153;52.316;21.166;2022-12-18T05:41:12;-4.10;99.90
25208;DHT22;13153;52.316;21.166;2022-12-18T05:43:39;-4.10;99.90
25208;DHT22;13153;52.316;21.166;2022-12-18T05:46:08;-4.10;99.90
25208;DHT22;13153;52.316;21.166;2022-12-18T05:48:37;-4.10;99.90
25208;DHT22;13153;52.316;21.166;2022-12-18T05:51:09;-4.10;99.90
25208;DHT22;13153;52.316;21.166;2022-12-18T05:53:37;-4.10;99.90
25208;DHT22;13153;52.316;21.166;2022-12-18T05:56:17;-4.10;99.90
25208;DHT22;13153;52.316;21.166;2022-12-18T05:58:51;-4.10;99.90
25208;DHT22;13153;52.316;21.166;2022-12-18T06:01:21;-4.20;99.90
25208;DHT22;13153;52.316;21.166;2022-12-18T06:03:49;-4.20;99.90
25208;DHT22;13153;52.316;21.166;2022-12-18T06:06:18;-4.20;99.90
25208;DHT22;13153;52.316;21.166;2022-12-18T06:08:49;-4.20;99.90
25208;DHT22;13153;52.316;21.166;2022-12-18T06:11:21;-4.30;99.90
25208;DHT22;13153;52.316;21.166;2022-12-18T06:13:55;-4.30;99.90
25208;DHT22;13153;52.316;21.166;2022-12-18T06:16:21;-4.20;99.90
25208;DHT22;13153;52.316;21.166;2022-12-18T06:18:47;-4.30;99.90
25208;DHT22;13153;52.316;21.166;2022-12-18T06:21:13;-4.30;99.90
25208;DHT22;13153;52.316;21.166;2022-12-18T06:23:39;-4.20;99.90
25208;DHT22;13153;52.316;21.166;2022-12-18T06:26:06;-4.30;99.90
25208;DHT22;13153;52.316;21.166;2022-12-18T06:28:36;-4.30;99.90
25208;DHT22;13153;52.316;21.166;2022-12-18T06:31:03;-4.30;99.90
25208;DHT22;13153;52.316;21.166;2022-12-18T06:33:30;-4.30;99.90
25208;DHT22;13153;52.316;21.166;2022-12-18T06:36:05;-4.30;99.90
25208;DHT22;13153;52.316;21.166;2022-12-18T06:38:34;-4.30;99.90
25208;DHT22;13153;52.316;21.166;2022-12-18T06:41:05;-4.30;99.90
25208;DHT22;13153;52.316;21.166;2022-12-18T06:43:35;-4.30;99.90
25208;DHT22;13153;52.316;21.166;2022-12-18T06:46:02;-4.30;99.90
25208;DHT22;13153;52.316;21.166;2022-12-18T06:48:29;-4.30;99.90
25208;DHT22;13153;52.316;21.166;2022-12-18T06:50:56;-4.20;99.90
25208;DHT22;13153;52.316;21.166;2022-12-18T06:53:22;-4.30;99.90
25208;DHT22;13153;52.316;21.166;2022-12-18T06:55:48;-4.20;99.90
25208;DHT22;13153;52.316;21.166;2022-12-18T06:58:14;-4.20;99.90
25208;DHT22;13153;52.316;21.166;2022-12-18T07:00:40;-4.10;99.90
25208;DHT22;13153;52.316;21.166;2022-12-18T07:03:06;-4.20;99.90
25208;DHT22;13153;52.316;21.166;2022-12-18T07:05:32;-4.10;99.90
25208;DHT22;13153;52.316;21.166;2022-12-18T07:07:58;-4.20;99.90
25208;DHT22;13153;52.316;21.166;2022-12-18T07:10:24;-4.20;99.90
25208;DHT22;13153;52.316;21.166;2022-12-18T07:12:50;-4.20;99.90
25208;DHT22;13153;52.316;21.166;2022-12-18T07:15:16;-4.20;99.90
25208;DHT22;13153;52.316;21.166;2022-12-18T07:17:42;-4.20;99.90
25208;DHT22;13153;52.316;21.166;2022-12-18T07:20:08;-4.20;99.90
25208;DHT22;13153;52.316;21.166;2022-12-18T07:22:34;-4.20;99.90
25208;DHT22;13153;52.316;21.166;2022-12-18T07:25:00;-4.20;99.90
25208;DHT22;13153;52.316;21.166;2022-12-18T07:27:26;-4.20;99.90
25208;DHT22;13153;52.316;21.166;2022-12-18T07:29:51;-4.20;99.90
25208;DHT22;13153;52.316;21.166;2022-12-18T07:32:17;-4.30;99.90
25208;DHT22;13153;52.316;21.166;2022-12-18T07:34:43;-4.30;99.90
25208;DHT22;13153;52.316;21.166;2022-12-18T07:37:09;-4.30;99.90
25208;DHT22;13153;52.316;21.166;2022-12-18T07:39:35;-4.30;99.90
25208;DHT22;13153;52.316;21.166;2022-12-18T07:42:00;-4.20;99.90
25208;DHT22;13153;52.316;21.166;2022-12-18T07:44:45;-4.20;99.90
25208;DHT22;13153;52.316;21.166;2022-12-18T07:47:11;-4.20;99.90
25208;DHT22;13153;52.316;21.166;2022-12-18T07:49:37;-4.20;99.90
25208;DHT22;13153;52.316;21.166;2022-12-18T07:52:03;-4.10;99.90
25208;DHT22;13153;52.316;21.166;2022-12-18T07:54:29;-4.10;99.90
25208;DHT22;13153;52.316;21.166;2022-12-18T07:56:54;-4.00;99.90
25208;DHT22;13153;52.316;21.166;2022-12-18T07:59:20;-4.00;99.90
25208;DHT22;13153;52.316;21.166;2022-12-18T08:01:46;-4.00;99.90
25208;DHT22;13153;52.316;21.166;2022-12-18T08:04:12;-3.90;99.90
25208;DHT22;13153;52.316;21.166;2022-12-18T08:06:38;-3.90;99.90
25208;DHT22;13153;52.316;21.166;2022-12-18T08:09:03;-3.90;99.90
25208;DHT22;13153;52.316;21.166;2022-12-18T08:11:29;-3.80;99.90
25208;DHT22;13153;52.316;21.166;2022-12-18T08:13:55;-3.90;99.90
25208;DHT22;13153;52.316;21.166;2022-12-18T08:16:22;-3.90;99.90
25208;DHT22;13153;52.316;21.166;2022-12-18T08:18:48;-3.90;99.90
25208;DHT22;13153;52.316;21.166;2022-12-18T08:21:17;-3.90;99.90
25208;DHT22;13153;52.316;21.166;2022-12-18T08:23:46;-3.90;99.90
25208;DHT22;13153;52.316;21.166;2022-12-18T08:26:12;-3.80;99.90
25208;DHT22;13153;52.316;21.166;2022-12-18T08:28:40;-3.80;99.90
25208;DHT22;13153;52.316;21.166;2022-12-18T08:31:06;-3.80;99.90
25208;DHT22;13153;52.316;21.166;2022-12-18T08:33:33;-3.70;99.90
25208;DHT22;13153;52.316;21.166;2022-12-18T08:36:00;-3.70;99.90
25208;DHT22;13153;52.316;21.166;2022-12-18T08:38:27;-3.70;99.90
25208;DHT22;13153;52.316;21.166;2022-12-18T08:41:04;-3.70;99.90
25208;DHT22;13153;52.316;21.166;2022-12-18T08:43:32;-3.50;99.90
25208;DHT22;13153;52.316;21.166;2022-12-18T08:46:20;-3.40;99.90
25208;DHT22;13153;52.316;21.166;2022-12-18T08:48:47;-3.30;99.90
25208;DHT22;13153;52.316;21.166;2022-12-18T08:51:15;-3.20;99.90
25208;DHT22;13153;52.316;21.166;2022-12-18T08:53:42;-3.10;99.90
25208;DHT22;13153;52.316;21.166;2022-12-18T08:56:10;-3.20;99.90
25208;DHT22;13153;52.316;21.166;2022-12-18T08:58:36;-3.20;99.90
25208;DHT22;13153;52.316;21.166;2022-12-18T09:01:04;-3.20;99.90
25208;DHT22;13153;52.316;21.166;2022-12-18T09:03:31;-3.20;99.90
25208;DHT22;13153;52.316;21.166;2022-12-18T09:05:58;-3.30;99.90
25208;DHT22;13153;52.316;21.166;2022-12-18T09:08:25;-3.30;99.90
25208;DHT22;13153;52.316;21.166;2022-12-18T09:10:51;-3.30;99.90
25208;DHT22;13153;52.316;21.166;2022-12-18T09:13:17;-3.30;99.90
25208;DHT22;13153;52.316;21.166;2022-12-18T09:15:45;-3.20;99.90
25208;DHT22;13153;52.316;21.166;2022-12-18T09:18:14;-3.20;99.90
25208;DHT22;13153;52.316;21.166;2022-12-18T09:20:41;-3.10;99.90
25208;DHT22;13153;52.316;21.166;2022-12-18T09:23:07;-3.10;99.90
25208;DHT22;13153;52.316;21.166;2022-12-18T09:25:35;-3.10;99.90
25208;DHT22;13153;52.316;21.166;2022-12-18T09:28:16;-3.10;99.90
25208;DHT22;13153;52.316;21.166;2022-12-18T09:30:46;-3.10;99.90
25208;DHT22;13153;52.316;21.166;2022-12-18T09:33:14;-3.00;99.90
25208;DHT22;13153;52.316;21.166;2022-12-18T09:35:42;-3.00;99.90
25208;DHT22;13153;52.316;21.166;2022-12-18T09:38:19;-3.00;99.90
25208;DHT22;13153;52.316;21.166;2022-12-18T09:40:53;-2.90;99.90
25208;DHT22;13153;52.316;21.166;2022-12-18T09:43:37;-2.90;99.90
25208;DHT22;13153;52.316;21.166;2022-12-18T09:46:16;-2.80;99.90
25208;DHT22;13153;52.316;21.166;2022-12-18T09:49:02;-2.80;99.90
25208;DHT22;13153;52.316;21.166;2022-12-18T09:51:40;-2.70;99.90
25208;DHT22;13153;52.316;21.166;2022-12-18T09:54:16;-2.70;99.90
25208;DHT22;13153;52.316;21.166;2022-12-18T09:56:46;-2.70;99.90
25208;DHT22;13153;52.316;21.166;2022-12-18T09:59:37;-2.60;99.90
25208;DHT22;13153;52.316;21.166;2022-12-18T10:02:34;-2.60;99.90
25208;DHT22;13153;52.316;21.166;2022-12-18T10:10:52;-2.50;99.90
25208;DHT22;13153;52.316;21.166;2022-12-18T10:13:42;-2.50;99.90
25208;DHT22;13153;52.316;21.166;2022-12-18T10:16:47;-2.50;99.90
25208;DHT22;13153;52.316;21.166;2022-12-18T10:25:14;-2.30;99.90
25208;DHT22;13153;52.316;21.166;2022-12-18T10:27:58;-2.20;99.90
25208;DHT22;13153;52.316;21.166;2022-12-18T10:30:33;-2.20;99.90
25208;DHT22;13153;52.316;21.166;2022-12-18T10:33:02;-2.10;99.90
25208;DHT22;13153;52.316;21.166;2022-12-18T10:35:28;-2.10;99.90
25208;DHT22;13153;52.316;21.166;2022-12-18T10:38:05;-2.10;99.90
25208;DHT22;13153;52.316;21.166;2022-12-18T10:40:56;-2.10;99.90
25208;DHT22;13153;52.316;21.166;2022-12-18T10:43:31;-2.10;99.90
25208;DHT22;13153;52.316;21.166;2022-12-18T10:54:21;-2.00;99.90
25208;DHT22;13153;52.316;21.166;2022-12-18T10:56:48;-2.10;99.90
25208;DHT22;13153;52.316;21.166;2022-12-18T10:59:16;-2.00;99.90
25208;DHT22;13153;52.316;21.166;2022-12-18T11:01:59;-2.00;99.90
25208;DHT22;13153;52.316;21.166;2022-12-18T11:04:30;-2.00;99.90
25208;DHT22;13153;52.316;21.166;2022-12-18T11:09:28;-2.00;99.90
25208;DHT22;13153;52.316;21.166;2022-12-18T11:12:00;-2.00;99.90
25208;DHT22;13153;52.316;21.166;2022-12-18T11:14:32;-2.00;99.90
25208;DHT22;13153;52.316;21.166;2022-12-18T11:17:35;-2.00;99.90
25208;DHT22;13153;52.316;21.166;2022-12-18T11:20:18;-2.00;99.90
25208;DHT22;13153;52.316;21.166;2022-12-18T11:22:58;-1.90;99.90
25208;DHT22;13153;52.316;21.166;2022-12-18T11:25:26;-1.90;99.90
25208;DHT22;13153;52.316;21.166;2022-12-18T11:27:55;-1.90;99.90
25208;DHT22;13153;52.316;21.166;2022-12-18T11:33:15;-1.90;99.90
25208;DHT22;13153;52.316;21.166;2022-12-18T11:36:01;-1.80;99.90
25208;DHT22;13153;52.316;21.166;2022-12-18T11:38:35;-1.80;99.90
25208;DHT22;13153;52.316;21.166;2022-12-18T11:53:21;-1.90;99.90
25208;DHT22;13153;52.316;21.166;2022-12-18T11:56:00;-2.00;99.90
25208;DHT22;13153;52.316;21.166;2022-12-18T11:58:44;-2.00;99.90
25208;DHT22;13153;52.316;21.166;2022-12-18T12:07:43;-2.00;99.90
25208;DHT22;13153;52.316;21.166;2022-12-18T12:10:46;-1.90;99.90
25208;DHT22;13153;52.316;21.166;2022-12-18T12:16:19;-2.00;99.90
25208;DHT22;13153;52.316;21.166;2022-12-18T12:22:03;-2.00;99.90
25208;DHT22;13153;52.316;21.166;2022-12-18T12:27:52;-2.00;99.90
25208;DHT22;13153;52.316;21.166;2022-12-18T12:30:47;-2.10;99.90
25208;DHT22;13153;52.316;21.166;2022-12-18T12:37:11;-2.20;99.90
25208;DHT22;13153;52.316;21.166;2022-12-18T12:39:43;-2.20;99.90
25208;DHT22;13153;52.316;21.166;2022-12-18T12:42:20;-2.20;99.90
25208;DHT22;13153;52.316;21.166;2022-12-18T12:45:37;-2.30;99.90
25208;DHT22;13153;52.316;21.166;2022-12-18T12:51:13;-2.10;99.90
25208;DHT22;13153;52.316;21.166;2022-12-18T12:53:44;-2.10;99.90
25208;DHT22;13153;52.316;21.166;2022-12-18T12:56:13;-2.10;99.90
25208;DHT22;13153;52.316;21.166;2022-12-18T13:07:51;-2.20;99.90
25208;DHT22;13153;52.316;21.166;2022-12-18T13:10:39;-2.30;99.90
25208;DHT22;13153;52.316;21.166;2022-12-18T13:13:12;-2.30;99.90
25208;DHT22;13153;52.316;21.166;2022-12-18T13:15:47;-2.40;99.90
25208;DHT22;13153;52.316;21.166;2022-12-18T13:18:33;-2.30;99.90
25208;DHT22;13153;52.316;21.166;2022-12-18T13:31:00;-2.50;99.90
25208;DHT22;13153;52.316;21.166;2022-12-18T13:38:41;-2.50;99.90
25208;DHT22;13153;52.316;21.166;2022-12-18T13:41:22;-2.50;99.90
25208;DHT22;13153;52.316;21.166;2022-12-18T13:43:54;-2.50;99.90
25208;DHT22;13153;52.316;21.166;2022-12-18T13:46:43;-2.50;99.90
25208;DHT22;13153;52.316;21.166;2022-12-18T13:51:46;-2.50;99.90
25208;DHT22;13153;52.316;21.166;2022-12-18T14:00:25;-2.50;99.90
25208;DHT22;13153;52.316;21.166;2022-12-18T14:02:54;-2.60;99.90
25208;DHT22;13153;52.316;21.166;2022-12-18T14:07:49;-2.50;99.90
25208;DHT22;13153;52.316;21.166;2022-12-18T14:10:16;-2.50;99.90
25208;DHT22;13153;52.316;21.166;2022-12-18T14:12:46;-2.50;99.90
25208;DHT22;13153;52.316;21.166;2022-12-18T14:15:35;-2.60;99.90
25208;DHT22;13153;52.316;21.166;2022-12-18T14:18:25;-2.50;99.90
25208;DHT22;13153;52.316;21.166;2022-12-18T14:20:57;-2.50;99.90
25208;DHT22;13153;52.316;21.166;2022-12-18T14:26:02;-2.50;99.90
25208;DHT22;13153;52.316;21.166;2022-12-18T14:28:44;-2.50;99.90
25208;DHT22;13153;52.316;21.166;2022-12-18T14:31:40;-2.60;99.90
25208;DHT22;13153;52.316;21.166;2022-12-18T14:34:08;-2.60;99.90
25208;DHT22;13153;52.316;21.166;2022-12-18T14:36:41;-2.60;99.90
25208;DHT22;13153;52.316;21.166;2022-12-18T14:39:17;-2.50;99.90
25208;DHT22;13153;52.316;21.166;2022-12-18T14:41:43;-2.50;99.90
25208;DHT22;13153;52.316;21.166;2022-12-18T14:44:12;-2.50;99.90
25208;DHT22;13153;52.316;21.166;2022-12-18T14:46:41;-2.50;99.90
25208;DHT22;13153;52.316;21.166;2022-12-18T14:49:33;-2.50;99.90
25208;DHT22;13153;52.316;21.166;2022-12-18T14:52:02;-2.50;99.90
25208;DHT22;13153;52.316;21.166;2022-12-18T14:54:31;-2.50;99.90
25208;DHT22;13153;52.316;21.166;2022-12-18T14:59:42;-2.50;99.90
25208;DHT22;13153;52.316;21.166;2022-12-18T15:02:22;-2.50;99.90
25208;DHT22;13153;52.316;21.166;2022-12-18T15:05:03;-2.60;99.90
25208;DHT22;13153;52.316;21.166;2022-12-18T15:07:44;-2.50;99.90
25208;DHT22;13153;52.316;21.166;2022-12-18T15:10:19;-2.60;99.90
25208;DHT22;13153;52.316;21.166;2022-12-18T15:13:15;-2.50;99.90
25208;DHT22;13153;52.316;21.166;2022-12-18T15:15:46;-2.60;99.90
25208;DHT22;13153;52.316;21.166;2022-12-18T15:18:15;-2.60;99.90
25208;DHT22;13153;52.316;21.166;2022-12-18T15:20:48;-2.60;99.90
25208;DHT22;13153;52.316;21.166;2022-12-18T15:23:32;-2.60;99.90
25208;DHT22;13153;52.316;21.166;2022-12-18T15:26:06;-2.60;99.90
25208;DHT22;13153;52.316;21.166;2022-12-18T15:28:52;-2.60;99.90
25208;DHT22;13153;52.316;21.166;2022-12-18T15:31:35;-2.60;99.90
25208;DHT22;13153;52.316;21.166;2022-12-18T15:34:21;-2.70;99.90
25208;DHT22;13153;52.316;21.166;2022-12-18T15:36:49;-2.70;99.90
25208;DHT22;13153;52.316;21.166;2022-12-18T15:39:16;-2.70;99.90
25208;DHT22;13153;52.316;21.166;2022-12-18T15:41:41;-2.70;99.90
25208;DHT22;13153;52.316;21.166;2022-12-18T15:44:27;-2.70;99.90
25208;DHT22;13153;52.316;21.166;2022-12-18T15:46:53;-2.70;99.90
25208;DHT22;13153;52.316;21.166;2022-12-18T15:49:19;-2.70;99.90
25208;DHT22;13153;52.316;21.166;2022-12-18T15:51:47;-2.70;99.90
25208;DHT22;13153;52.316;21.166;2022-12-18T15:54:17;-2.70;99.90
25208;DHT22;13153;52.316;21.166;2022-12-18T15:57:03;-2.70;99.90
25208;DHT22;13153;52.316;21.166;2022-12-18T15:59:47;-2.70;99.90
25208;DHT22;13153;52.316;21.166;2022-12-18T16:02:16;-2.70;99.90
25208;DHT22;13153;52.316;21.166;2022-12-18T16:04:43;-2.70;99.90
25208;DHT22;13153;52.316;21.166;2022-12-18T16:07:11;-2.70;99.90
25208;DHT22;13153;52.316;21.166;2022-12-18T16:09:37;-2.70;99.90
25208;DHT22;13153;52.316;21.166;2022-12-18T16:12:05;-2.70;99.90
25208;DHT22;13153;52.316;21.166;2022-12-18T16:14:32;-2.70;99.90
25208;DHT22;13153;52.316;21.166;2022-12-18T16:17:00;-2.80;99.90
25208;DHT22;13153;52.316;21.166;2022-12-18T16:19:28;-2.70;99.90
25208;DHT22;13153;52.316;21.166;2022-12-18T16:21:57;-2.80;99.90
25208;DHT22;13153;52.316;21.166;2022-12-18T16:24:26;-2.80;99.90
25208;DHT22;13153;52.316;21.166;2022-12-18T16:26:55;-2.80;99.90
25208;DHT22;13153;52.316;21.166;2022-12-18T16:29:22;-2.80;99.90
25208;DHT22;13153;52.316;21.166;2022-12-18T16:31:52;-2.80;99.90
25208;DHT22;13153;52.316;21.166;2022-12-18T16:34:21;-2.80;99.90
25208;DHT22;13153;52.316;21.166;2022-12-18T16:36:49;-2.80;99.90
25208;DHT22;13153;52.316;21.166;2022-12-18T16:39:16;-2.80;99.90
25208;DHT22;13153;52.316;21.166;2022-12-18T16:41:42;-2.80;99.90
25208;DHT22;13153;52.316;21.166;2022-12-18T16:44:08;-2.80;99.90
25208;DHT22;13153;52.316;21.166;2022-12-18T16:46:35;-2.70;99.90
25208;DHT22;13153;52.316;21.166;2022-12-18T16:49:02;-2.80;99.90
25208;DHT22;13153;52.316;21.166;2022-12-18T16:51:29;-2.80;99.90
25208;DHT22;13153;52.316;21.166;2022-12-18T16:53:55;-2.80;99.90
25208;DHT22;13153;52.316;21.166;2022-12-18T16:56:21;-2.80;99.90
25208;DHT22;13153;52.316;21.166;2022-12-18T16:58:52;-2.80;99.90
25208;DHT22;13153;52.316;21.166;2022-12-18T17:01:19;-2.80;99.90
25208;DHT22;13153;52.316;21.166;2022-12-18T17:03:57;-2.90;99.90
25208;DHT22;13153;52.316;21.166;2022-12-18T17:06:25;-2.90;99.90
25208;DHT22;13153;52.316;21.166;2022-12-18T17:09:00;-2.90;99.90
25208;DHT22;13153;52.316;21.166;2022-12-18T17:11:31;-2.90;99.90
25208;DHT22;13153;52.316;21.166;2022-12-18T17:13:58;-2.90;99.90
25208;DHT22;13153;52.316;21.166;2022-12-18T17:16:24;-3.00;99.90
25208;DHT22;13153;52.316;21.166;2022-12-18T17:18:54;-2.90;99.90
25208;DHT22;13153;52.316;21.166;2022-12-18T17:21:20;-3.00;99.90
25208;DHT22;13153;52.316;21.166;2022-12-18T17:23:45;-3.00;99.90
25208;DHT22;13153;52.316;21.166;2022-12-18T17:26:12;-3.00;99.90
25208;DHT22;13153;52.316;21.166;2022-12-18T17:28:39;-3.00;99.90
25208;DHT22;13153;52.316;21.166;2022-12-18T17:31:15;-3.00;99.90
25208;DHT22;13153;52.316;21.166;2022-12-18T17:33:43;-3.00;99.90
25208;DHT22;13153;52.316;21.166;2022-12-18T17:36:10;-3.00;99.90
25208;DHT22;13153;52.316;21.166;2022-12-18T17:38:37;-3.10;99.90
25208;DHT22;13153;52.316;21.166;2022-12-18T17:41:04;-3.10;99.90
25208;DHT22;13153;52.316;21.166;2022-12-18T17:43:32;-3.10;99.90
25208;DHT22;13153;52.316;21.166;2022-12-18T17:46:04;-3.10;99.90
25208;DHT22;13153;52.316;21.166;2022-12-18T17:48:32;-3.10;99.90
25208;DHT22;13153;52.316;21.166;2022-12-18T17:51:06;-3.10;99.90
25208;DHT22;13153;52.316;21.166;2022-12-18T17:53:36;-3.10;99.90
25208;DHT22;13153;52.316;21.166;2022-12-18T17:56:05;-3.10;99.90
25208;DHT22;13153;52.316;21.166;2022-12-18T17:58:33;-3.10;99.90
25208;DHT22;13153;52.316;21.166;2022-12-18T18:01:02;-3.10;99.90
25208;DHT22;13153;52.316;21.166;2022-12-18T18:03:28;-3.10;99.90